Time;durP1;ratioP1;P1;durP2;ratioP2;P2;SDS_P1;SDS_P2;PMS_P1;PMS_P2;Temp;Humidity;BMP_temperature;BMP_pressure;BME280_temperature;BME280_humidity;BME280_pressure;Samples;Min_cycle;Max_cycle;Signal;HPM_P1;HPM_P2
2023/04/05 00:01:32;;;;;;;24.27;9.82;;;9.30;81.10;;;;;;4957593;28;20054;-92
2023/04/05 00:03:59;;;;;;;24.60;10.07;;;9.30;81.10;;;;;;4981350;28;20038;-91
2023/04/05 00:06:29;;;;;;;22.15;9.52;;;9.30;81.30;;;;;;4980474;28;20074;-91
2023/04/05 00:08:57;;;;;;;22.90;9.97;;;9.30;81.20;;;;;;4985546;28;20030;-92
2023/04/05 00:11:24;;;;;;;21.95;9.15;;;9.30;81.30;;;;;;4985453;28;20045;-93
2023/04/05 00:13:50;;;;;;;20.00;9.25;;;9.30;81.40;;;;;;4985272;28;20054;-92
2023/04/05 00:16:17;;;;;;;21.02;8.70;;;9.30;81.50;;;;;;4983133;28;20023;-94
2023/04/05 00:18:50;;;;;;;21.65;9.57;;;9.30;81.80;;;;;;4981550;28;20146;-93
2023/04/05 00:21:20;;;;;;;26.65;9.80;;;9.30;82.20;;;;;;4977793;28;20122;-93
2023/04/05 00:23:59;;;;;;;25.23;9.95;;;9.30;82.30;;;;;;4983206;28;20015;-93
2023/04/05 00:26:25;;;;;;;22.95;9.95;;;9.20;82.30;;;;;;4984004;28;20035;-93
2023/04/05 00:28:51;;;;;;;21.90;9.20;;;9.20;82.40;;;;;;4991527;28;20027;-91
2023/04/05 00:31:17;;;;;;;21.85;9.60;;;9.10;82.50;;;;;;4990902;28;20031;-91
2023/04/05 00:33:44;;;;;;;15.85;8.05;;;9.10;82.80;;;;;;4990739;28;20059;-91
2023/04/05 00:36:17;;;;;;;20.20;9.30;;;9.10;83.00;;;;;;4989311;28;20034;-92
2023/04/05 00:38:46;;;;;;;22.80;9.63;;;9.10;83.40;;;;;;4991099;28;20015;-92
2023/04/05 00:41:12;;;;;;;17.90;8.60;;;9.00;83.50;;;;;;4989025;28;20034;-90
2023/04/05 00:43:39;;;;;;;20.17;7.75;;;9.00;83.70;;;;;;4989474;28;20023;-93
2023/04/05 00:46:06;;;;;;;20.17;7.85;;;9.00;84.10;;;;;;4985863;28;20035;-93
2023/04/05 00:48:32;;;;;;;18.08;8.27;;;9.00;84.50;;;;;;4987624;28;20054;-88
2023/04/05 00:50:59;;;;;;;17.30;7.70;;;9.00;84.80;;;;;;4986107;28;20034;-91
2023/04/05 00:53:26;;;;;;;12.50;6.47;;;8.90;85.10;;;;;;4985596;28;20019;-92
2023/04/05 00:55:53;;;;;;;15.18;7.28;;;8.90;85.70;;;;;;4986039;28;20059;-92
2023/04/05 00:58:22;;;;;;;15.50;6.78;;;8.90;86.30;;;;;;4985145;28;20022;-93
2023/04/05 01:01:18;;;;;;;22.77;8.73;;;8.90;86.60;;;;;;4984533;28;20031;-92
2023/04/05 01:03:52;;;;;;;19.30;7.47;;;8.90;87.10;;;;;;4983132;28;20023;-92
2023/04/05 01:06:37;;;;;;;17.05;6.97;;;8.90;87.30;;;;;;4981332;28;20023;-92
2023/04/05 01:09:34;;;;;;;19.85;8.85;;;8.80;87.70;;;;;;4977653;28;20034;-92
2023/04/05 01:12:05;;;;;;;16.77;8.40;;;8.80;88.20;;;;;;5000224;28;20056;-93
2023/04/05 01:14:30;;;;;;;14.90;7.30;;;8.80;88.40;;;;;;5008150;28;20018;-92
2023/04/05 01:16:57;;;;;;;18.27;8.98;;;8.70;88.50;;;;;;5033013;28;20022;-91
2023/04/05 01:19:28;;;;;;;21.00;8.60;;;8.70;88.90;;;;;;5020001;28;20630;-92
2023/04/05 01:22:13;;;;;;;21.60;10.13;;;8.60;89.20;;;;;;5022644;28;20084;-93
2023/04/05 01:24:57;;;;;;;21.48;8.70;;;8.50;89.30;;;;;;5005503;28;20022;-93
2023/04/05 01:27:35;;;;;;;19.98;8.55;;;8.50;90.00;;;;;;5019902;28;20093;-92
2023/04/05 01:30:17;;;;;;;23.13;9.10;;;8.40;90.10;;;;;;5002062;28;20034;-93
2023/04/05 01:32:56;;;;;;;19.85;8.95;;;8.40;90.30;;;;;;5006989;28;20029;-92
2023/04/05 01:35:38;;;;;;;15.05;7.45;;;8.30;90.50;;;;;;5006448;28;20045;-91
2023/04/05 01:38:06;;;;;;;18.67;7.72;;;8.30;90.70;;;;;;5005663;28;20384;-93
2023/04/05 01:40:34;;;;;;;20.00;7.95;;;8.30;91.00;;;;;;5007405;28;20033;-91
2023/04/05 01:43:01;;;;;;;16.90;7.55;;;8.20;91.20;;;;;;5006735;28;20036;-92
2023/04/05 01:45:27;;;;;;;20.38;8.52;;;8.20;91.50;;;;;;5006391;28;20060;-91
2023/04/05 01:47:53;;;;;;;17.92;9.55;;;8.20;91.70;;;;;;5000253;28;20022;-92
2023/04/05 01:50:19;;;;;;;23.80;8.80;;;8.20;91.90;;;;;;5017810;28;20443;-91
2023/04/05 01:52:45;;;;;;;15.52;7.10;;;8.10;92.10;;;;;;5007050;28;20014;-91
2023/04/05 01:55:10;;;;;;;19.15;8.77;;;8.10;92.30;;;;;;5018624;28;20045;-90
2023/04/05 01:57:37;;;;;;;15.85;7.18;;;8.10;92.50;;;;;;5009837;28;20056;-91
2023/04/05 02:00:03;;;;;;;16.30;7.78;;;8.00;92.70;;;;;;5001364;28;20034;-93
2023/04/05 02:02:29;;;;;;;17.30;7.97;;;7.90;93.10;;;;;;4999871;28;20030;-91
2023/04/05 02:05:27;;;;;;;18.38;8.75;;;7.80;93.40;;;;;;5135266;27;20472;-92
2023/04/05 02:07:52;;;;;;;23.17;8.75;;;7.70;93.90;;;;;;5142538;28;20034;-92
2023/04/05 02:10:19;;;;;;;16.58;7.80;;;7.70;94.40;;;;;;5140023;28;20038;-91
2023/04/05 02:12:45;;;;;;;17.42;8.35;;;7.70;94.80;;;;;;5120758;28;20016;-94
2023/04/05 02:15:11;;;;;;;21.35;8.43;;;7.60;95.00;;;;;;5123390;28;20045;-90
2023/04/05 02:17:44;;;;;;;14.70;7.72;;;7.70;95.40;;;;;;5145155;28;20027;-94
2023/04/05 02:20:13;;;;;;;15.50;7.63;;;7.70;95.60;;;;;;5124279;28;20019;-92
2023/04/05 02:22:39;;;;;;;16.92;8.23;;;7.60;95.90;;;;;;5139115;28;20024;-92
2023/04/05 02:25:08;;;;;;;17.95;8.07;;;7.60;96.30;;;;;;5141826;28;20381;-91
2023/04/05 02:27:34;;;;;;;17.35;8.77;;;7.60;96.50;;;;;;5131590;28;20015;-91
2023/04/05 02:30:00;;;;;;;17.40;9.40;;;7.60;96.70;;;;;;5115870;28;20023;-91
2023/04/05 02:32:25;;;;;;;19.42;7.40;;;7.50;96.90;;;;;;5117127;28;20019;-93
2023/04/05 02:34:52;;;;;;;21.08;9.57;;;7.50;97.50;;;;;;5116697;28;20101;-93
2023/04/05 02:37:21;;;;;;;23.40;8.95;;;7.50;97.60;;;;;;5133408;28;20015;-93
2023/04/05 02:39:47;;;;;;;19.80;8.02;;;7.50;97.90;;;;;;5116515;28;20024;-92
2023/04/05 02:42:12;;;;;;;18.15;7.13;;;7.50;98.20;;;;;;5117191;28;20200;-92
2023/04/05 02:44:38;;;;;;;17.45;8.60;;;7.50;98.60;;;;;;5118796;28;20059;-93
2023/04/05 02:47:04;;;;;;;14.85;6.90;;;7.50;99.10;;;;;;5134648;28;20012;-91
2023/04/05 02:49:29;;;;;;;18.05;8.00;;;7.50;99.10;;;;;;5118628;28;20093;-92
2023/04/05 02:51:55;;;;;;;21.58;9.25;;;7.50;99.50;;;;;;5134920;27;20105;-93
2023/04/05 02:54:21;;;;;;;18.75;8.32;;;7.50;99.80;;;;;;5136432;27;20023;-92
2023/04/05 02:56:48;;;;;;;13.63;7.53;;;7.40;99.90;;;;;;5137249;27;20032;-92
2023/04/05 02:59:14;;;;;;;20.15;8.02;;;7.40;99.90;;;;;;5130075;28;20053;-92
2023/04/05 03:01:43;;;;;;;20.52;10.13;;;7.40;99.90;;;;;;5136719;27;20023;-92
2023/04/05 03:04:11;;;;;;;19.20;8.00;;;7.40;99.90;;;;;;5134326;28;20065;-92
2023/04/05 03:06:37;;;;;;;19.88;9.95;;;7.40;99.90;;;;;;5139293;28;20046;-92
2023/04/05 03:09:03;;;;;;;19.30;9.98;;;7.40;99.90;;;;;;5134792;28;20022;-92
2023/04/05 03:11:30;;;;;;;27.75;10.52;;;7.40;99.90;;;;;;5134884;28;20016;-92
2023/04/05 03:13:56;;;;;;;21.35;10.32;;;7.40;99.90;;;;;;5135865;28;20023;-93
2023/04/05 03:16:21;;;;;;;25.83;11.85;;;7.40;99.90;;;;;;5125387;28;20034;-92
2023/04/05 03:18:50;;;;;;;21.63;11.38;;;7.40;99.90;;;;;;5123666;28;20031;-92
2023/04/05 03:21:16;;;;;;;23.23;10.85;;;7.40;99.90;;;;;;5120611;28;20022;-92
2023/04/05 03:23:45;;;;;;;18.38;10.02;;;7.40;99.90;;;;;;5121943;28;20024;-92
2023/04/05 03:26:12;;;;;;;27.85;10.27;;;7.40;99.90;;;;;;5117853;28;20020;-93
2023/04/05 03:28:43;;;;;;;19.65;9.25;;;7.50;99.90;;;;;;5117890;28;20035;-93
2023/04/05 03:31:12;;;;;;;17.75;9.48;;;7.50;99.90;;;;;;5118459;28;20043;-93
2023/04/05 03:33:38;;;;;;;17.23;9.95;;;7.50;99.90;;;;;;5118753;28;20028;-92
2023/04/05 03:36:04;;;;;;;18.95;8.63;;;7.40;99.90;;;;;;5118918;28;20034;-93
2023/04/05 03:38:33;;;;;;;19.17;9.55;;;7.40;99.90;;;;;;5122546;28;20051;-93
2023/04/05 03:40:58;;;;;;;19.00;7.88;;;7.40;99.90;;;;;;5138362;28;20022;-92
2023/04/05 03:43:24;;;;;;;13.98;7.93;;;7.40;99.90;;;;;;5139134;27;20023;-88
2023/04/05 03:45:50;;;;;;;19.33;10.45;;;7.40;99.90;;;;;;5139035;27;20081;-90
2023/04/05 03:48:19;;;;;;;18.33;10.52;;;7.40;99.90;;;;;;5139117;27;20087;-91
2023/04/05 03:50:46;;;;;;;24.52;11.00;;;7.40;99.90;;;;;;5139322;27;20008;-88
2023/04/05 03:53:12;;;;;;;20.10;9.32;;;7.30;99.90;;;;;;5139240;27;20004;-89
2023/04/05 03:55:39;;;;;;;21.92;10.77;;;7.30;99.90;;;;;;5134509;27;20027;-92
2023/04/05 03:58:06;;;;;;;16.20;8.10;;;7.30;99.90;;;;;;5129479;28;20038;-89
2023/04/05 04:00:32;;;;;;;16.95;9.13;;;7.30;99.90;;;;;;5128494;28;20103;-91
2023/04/05 04:02:58;;;;;;;15.43;8.73;;;7.30;99.90;;;;;;5126416;28;20019;-92
2023/04/05 04:05:23;;;;;;;23.73;10.02;;;7.30;99.90;;;;;;5126726;28;20200;-90
2023/04/05 04:07:49;;;;;;;21.52;10.20;;;7.30;99.90;;;;;;5125511;28;20027;-90
2023/04/05 04:10:18;;;;;;;14.45;7.70;;;7.30;99.90;;;;;;5126188;28;20027;-89
2023/04/05 04:12:44;;;;;;;21.08;10.20;;;7.30;99.90;;;;;;5123506;28;20016;-91
2023/04/05 04:15:11;;;;;;;26.15;10.60;;;7.30;99.90;;;;;;5122389;28;20048;-90
2023/04/05 04:17:37;;;;;;;24.48;10.35;;;7.30;99.90;;;;;;5125217;28;20051;-91
2023/04/05 04:20:11;;;;;;;23.05;10.93;;;7.30;99.90;;;;;;5125310;28;20016;-92
2023/04/05 04:22:39;;;;;;;12.13;6.97;;;7.30;99.90;;;;;;5132384;28;20032;-87
2023/04/05 04:25:09;;;;;;;20.98;9.85;;;7.30;99.90;;;;;;5128571;28;20035;-93
2023/04/05 04:27:41;;;;;;;25.55;11.57;;;7.30;99.90;;;;;;5119548;28;20020;-92
2023/04/05 04:30:14;;;;;;;21.05;7.70;;;7.30;99.90;;;;;;5126020;28;20213;-92
2023/04/05 04:32:53;;;;;;;24.95;10.82;;;7.30;99.90;;;;;;5125773;28;20072;-91
2023/04/05 04:35:26;;;;;;;16.65;7.72;;;7.30;99.90;;;;;;5128191;28;20035;-91
2023/04/05 04:38:06;;;;;;;13.93;7.63;;;7.30;99.90;;;;;;5122553;28;20032;-92
2023/04/05 04:40:45;;;;;;;25.17;11.07;;;7.30;99.90;;;;;;5122768;28;20027;-92
2023/04/05 04:43:13;;;;;;;17.98;9.95;;;7.30;99.90;;;;;;5123869;28;20023;-90
2023/04/05 04:45:39;;;;;;;26.25;10.48;;;7.40;99.90;;;;;;5128055;28;20032;-91
2023/04/05 04:48:07;;;;;;;26.45;11.63;;;7.40;99.90;;;;;;5125970;28;20016;-92
2023/04/05 04:50:33;;;;;;;14.27;6.55;;;7.50;99.90;;;;;;5115653;28;20087;-94
2023/04/05 04:53:00;;;;;;;21.42;11.20;;;7.50;99.90;;;;;;5118861;28;20015;-92
2023/04/05 04:55:27;;;;;;;19.92;8.98;;;7.60;99.90;;;;;;5121660;28;20023;-92
2023/04/05 04:57:53;;;;;;;19.55;10.40;;;7.60;99.90;;;;;;5118762;28;20031;-91
2023/04/05 05:00:20;;;;;;;20.05;10.70;;;7.60;99.90;;;;;;5120334;28;20031;-92
2023/04/05 05:02:46;;;;;;;32.03;11.75;;;7.60;99.90;;;;;;5118651;28;20024;-91
2023/04/05 05:05:12;;;;;;;25.30;12.52;;;7.60;99.90;;;;;;5118381;28;20075;-91
2023/04/05 05:07:42;;;;;;;25.63;11.00;;;7.60;99.90;;;;;;5119217;28;20020;-91
2023/04/05 05:10:14;;;;;;;26.80;12.30;;;7.70;99.90;;;;;;5119088;28;20031;-91
2023/04/05 05:12:44;;;;;;;23.67;10.57;;;7.60;99.90;;;;;;5118551;28;20019;-91
2023/04/05 05:15:10;;;;;;;20.17;10.77;;;7.50;99.90;;;;;;5119972;28;20076;-92
2023/04/05 05:17:36;;;;;;;20.70;10.70;;;7.50;99.90;;;;;;5120209;28;20020;-93
2023/04/05 05:20:09;;;;;;;25.17;11.55;;;7.50;99.90;;;;;;5121720;28;20023;-92
2023/04/05 05:22:35;;;;;;;25.67;12.50;;;7.40;99.90;;;;;;5121140;28;20019;-92
2023/04/05 05:25:01;;;;;;;30.77;11.55;;;7.50;99.90;;;;;;5126563;28;20142;-91
2023/04/05 05:27:27;;;;;;;17.08;8.85;;;7.50;99.90;;;;;;5125274;28;20048;-91
2023/04/05 05:29:53;;;;;;;27.75;11.23;;;7.40;99.90;;;;;;5125142;28;20032;-91
2023/04/05 05:32:18;;;;;;;20.60;11.35;;;7.40;99.90;;;;;;5108649;28;20164;-92
2023/04/05 05:34:44;;;;;;;18.20;9.95;;;7.40;99.90;;;;;;5126764;28;20027;-92
2023/04/05 05:37:13;;;;;;;25.80;11.10;;;7.40;99.90;;;;;;5126293;28;20012;-91
2023/04/05 05:39:39;;;;;;;25.58;11.43;;;7.40;99.90;;;;;;5124504;28;20046;-91
2023/04/05 05:42:05;;;;;;;26.77;11.23;;;7.50;99.90;;;;;;5125313;28;20377;-92
2023/04/05 05:44:31;;;;;;;24.55;11.55;;;7.50;99.90;;;;;;5124357;28;20055;-92
2023/04/05 05:46:57;;;;;;;25.83;11.65;;;7.40;99.90;;;;;;5124299;28;20037;-93
2023/04/05 05:49:23;;;;;;;28.58;12.50;;;7.50;99.90;;;;;;5124498;28;20030;-92
2023/04/05 05:51:51;;;;;;;20.98;11.35;;;7.50;99.90;;;;;;5122427;28;20138;-92
2023/04/05 05:54:17;;;;;;;20.38;11.57;;;7.50;99.90;;;;;;5120321;28;20023;-92
2023/04/05 05:56:43;;;;;;;17.25;10.20;;;7.50;99.90;;;;;;5124236;28;20483;-91
2023/04/05 05:59:09;;;;;;;21.98;11.65;;;7.50;99.90;;;;;;5131276;28;20046;-92
2023/04/05 06:01:41;;;;;;;13.23;7.25;;;7.50;99.90;;;;;;5127034;28;20047;-91
2023/04/05 06:04:07;;;;;;;21.23;8.88;;;7.60;99.90;;;;;;5129053;28;20043;-90
2023/04/05 06:06:34;;;;;;;27.33;12.30;;;7.60;99.90;;;;;;5136760;28;20016;-91
2023/04/05 06:08:59;;;;;;;14.85;9.40;;;7.60;99.90;;;;;;5136945;27;20028;-85
2023/04/05 06:11:25;;;;;;;27.10;12.65;;;7.60;99.90;;;;;;5131231;28;20466;-89
2023/04/05 06:13:53;;;;;;;17.52;8.77;;;7.60;99.90;;;;;;5108200;28;20111;-86
2023/04/05 06:16:19;;;;;;;25.17;11.15;;;7.60;99.90;;;;;;5136695;27;20019;-88
2023/04/05 06:18:46;;;;;;;23.55;12.35;;;7.60;99.90;;;;;;5129797;28;20068;-91
2023/04/05 06:21:12;;;;;;;23.65;11.38;;;7.60;99.90;;;;;;5129969;28;20027;-88
2023/04/05 06:23:40;;;;;;;18.13;9.45;;;7.70;99.90;;;;;;5129705;28;20046;-90
2023/04/05 06:26:07;;;;;;;25.70;11.10;;;7.70;99.90;;;;;;5129210;28;20091;-91
2023/04/05 06:28:33;;;;;;;23.50;12.07;;;7.70;99.90;;;;;;5129648;28;20037;-91
2023/04/05 06:30:59;;;;;;;22.90;12.00;;;7.70;99.90;;;;;;5121790;28;20073;-91
2023/04/05 06:33:25;;;;;;;17.92;8.52;;;7.80;99.90;;;;;;5127234;28;20115;-90
2023/04/05 06:35:51;;;;;;;23.42;11.50;;;7.80;99.90;;;;;;5121646;28;20369;-92
2023/04/05 06:38:17;;;;;;;22.92;12.77;;;7.80;99.90;;;;;;5119653;28;20236;-93
2023/04/05 06:40:43;;;;;;;21.60;10.85;;;7.80;99.90;;;;;;5119759;28;20053;-89
2023/04/05 06:43:11;;;;;;;32.03;13.02;;;7.80;99.90;;;;;;5121185;28;20023;-92
2023/04/05 06:45:37;;;;;;;14.57;7.30;;;7.80;99.90;;;;;;5119823;28;20047;-91
2023/04/05 06:48:02;;;;;;;28.55;14.00;;;7.80;99.90;;;;;;5131230;28;20016;-93
2023/04/05 06:50:28;;;;;;;21.15;10.13;;;7.90;99.90;;;;;;5125538;28;20492;-92
2023/04/05 06:52:54;;;;;;;26.25;12.48;;;7.90;99.90;;;;;;5127223;28;20023;-91
2023/04/05 06:55:19;;;;;;;36.35;13.10;;;7.90;99.90;;;;;;5126198;28;20035;-91
2023/04/05 06:57:45;;;;;;;28.08;12.27;;;7.90;99.90;;;;;;5124591;28;20066;-92
2023/04/05 07:00:12;;;;;;;25.65;12.63;;;7.90;99.90;;;;;;5122463;28;20053;-92
2023/04/05 07:02:38;;;;;;;24.25;12.70;;;8.00;99.90;;;;;;5121778;28;20023;-93
2023/04/05 07:05:04;;;;;;;28.63;13.55;;;8.00;99.90;;;;;;5119684;28;20131;-92
2023/04/05 07:07:32;;;;;;;24.20;13.00;;;8.00;99.90;;;;;;5119556;28;20496;-91
2023/04/05 07:09:58;;;;;;;26.65;13.07;;;8.00;99.90;;;;;;5119905;28;20027;-91
2023/04/05 07:12:24;;;;;;;17.73;7.97;;;8.10;99.90;;;;;;5123478;28;20043;-91
2023/04/05 07:14:49;;;;;;;28.88;12.95;;;8.10;99.90;;;;;;5135709;28;20028;-90
2023/04/05 07:17:15;;;;;;;15.02;8.73;;;8.10;99.90;;;;;;5136855;28;20038;-93
2023/04/05 07:19:41;;;;;;;24.27;12.23;;;8.10;99.90;;;;;;5129567;28;20047;-91
2023/04/05 07:22:07;;;;;;;21.20;12.50;;;8.10;99.90;;;;;;5128738;28;20020;-91
2023/04/05 07:24:33;;;;;;;30.70;13.55;;;8.10;99.90;;;;;;5129580;28;20039;-93
2023/04/05 07:27:00;;;;;;;22.98;11.98;;;8.10;99.90;;;;;;5128937;28;20015;-93
2023/04/05 07:29:26;;;;;;;29.88;13.23;;;8.10;99.90;;;;;;5127869;28;20028;-91
2023/04/05 07:31:52;;;;;;;27.05;14.32;;;8.10;99.90;;;;;;5120074;28;20022;-92
2023/04/05 07:34:17;;;;;;;21.98;10.38;;;8.10;99.90;;;;;;5120031;28;20034;-92
2023/04/05 07:36:43;;;;;;;31.77;14.45;;;8.10;99.90;;;;;;5121985;28;20050;-93
2023/04/05 07:39:09;;;;;;;25.67;10.27;;;8.10;99.90;;;;;;5134468;28;20019;-91
2023/04/05 07:41:35;;;;;;;19.58;10.30;;;8.10;99.90;;;;;;5138689;27;20053;-90
2023/04/05 07:44:01;;;;;;;30.92;12.63;;;8.20;99.90;;;;;;5131850;28;20043;-93
2023/04/05 07:46:27;;;;;;;29.98;13.57;;;8.20;99.90;;;;;;5118706;28;20213;-90
2023/04/05 07:48:53;;;;;;;25.77;11.73;;;8.20;99.90;;;;;;5115753;28;20055;-93
2023/04/05 07:51:19;;;;;;;21.50;10.30;;;8.20;99.90;;;;;;5116492;28;20038;-93
2023/04/05 07:53:44;;;;;;;18.38;9.65;;;8.20;99.90;;;;;;5125231;28;20051;-93
2023/04/05 07:56:12;;;;;;;20.95;10.35;;;8.10;99.90;;;;;;5118819;28;20027;-93
2023/04/05 07:58:40;;;;;;;19.90;11.05;;;8.10;99.90;;;;;;5116884;28;20072;-93
2023/04/05 08:01:09;;;;;;;18.83;9.57;;;8.10;99.90;;;;;;5118445;28;20020;-92
2023/04/05 08:03:38;;;;;;;14.45;9.70;;;8.10;99.90;;;;;;5119459;28;20043;-92
2023/04/05 08:06:11;;;;;;;24.75;10.15;;;8.10;99.90;;;;;;5120465;28;20028;-92
2023/04/05 08:08:37;;;;;;;24.20;10.38;;;8.10;99.90;;;;;;5119615;28;20007;-89
2023/04/05 08:11:03;;;;;;;19.60;9.80;;;8.20;99.90;;;;;;5136914;28;20034;-88
2023/04/05 08:13:29;;;;;;;19.13;9.55;;;8.20;99.90;;;;;;5135931;28;20016;-89
2023/04/05 08:15:56;;;;;;;20.15;10.50;;;8.20;99.90;;;;;;5134570;28;20036;-89
2023/04/05 08:18:22;;;;;;;24.55;10.02;;;8.30;99.90;;;;;;5136768;28;20023;-90
2023/04/05 08:20:52;;;;;;;22.65;10.25;;;8.30;99.90;;;;;;5135590;28;20083;-90
2023/04/05 08:23:18;;;;;;;20.80;10.25;;;8.40;99.90;;;;;;5136577;27;20036;-86
2023/04/05 08:25:43;;;;;;;26.88;10.30;;;8.40;99.90;;;;;;5138022;28;20049;-90
2023/04/05 08:28:10;;;;;;;18.95;9.85;;;8.40;99.90;;;;;;5130195;28;20038;-90
2023/04/05 08:30:35;;;;;;;15.48;10.10;;;8.40;99.90;;;;;;5117057;28;20204;-91
2023/04/05 08:33:01;;;;;;;17.35;10.25;;;8.40;99.90;;;;;;5116224;28;20675;-92
2023/04/05 08:35:27;;;;;;;23.65;11.60;;;8.50;99.90;;;;;;5117431;28;20513;-92
2023/04/05 08:37:53;;;;;;;18.95;11.45;;;8.40;99.90;;;;;;5116370;28;20053;-94
2023/04/05 08:40:18;;;;;;;17.80;9.73;;;8.40;99.90;;;;;;5123365;28;20038;-94
2023/04/05 08:42:51;;;;;;;20.95;10.50;;;8.40;99.90;;;;;;5133099;28;20027;-91
2023/04/05 08:45:18;;;;;;;23.00;9.15;;;8.40;99.90;;;;;;5130022;28;20063;-92
2023/04/05 08:47:45;;;;;;;20.88;10.23;;;8.50;99.90;;;;;;5122526;28;20083;-92
2023/04/05 08:50:12;;;;;;;18.95;9.45;;;8.50;99.90;;;;;;5124433;28;20027;-91
2023/04/05 08:52:41;;;;;;;19.60;10.52;;;8.50;99.90;;;;;;5116351;28;20023;-90
2023/04/05 08:55:08;;;;;;;18.05;10.73;;;8.50;99.90;;;;;;5111959;28;20058;-89
2023/04/05 08:57:39;;;;;;;26.73;11.38;;;8.40;99.90;;;;;;5116104;28;20051;-91
2023/04/05 09:00:09;;;;;;;;;;;8.40;99.90;;;;;;5114923;28;20019;-89
2023/04/05 09:02:36;;;;;;;18.10;8.98;;;8.40;99.90;;;;;;5113755;28;19904;-90
2023/04/05 09:05:02;;;;;;;18.05;10.15;;;8.40;99.90;;;;;;5113454;28;20202;-89
2023/04/05 09:07:30;;;;;;;25.58;11.50;;;8.40;99.90;;;;;;5112130;28;20028;-89
2023/04/05 09:09:58;;;;;;;16.60;8.90;;;8.50;99.90;;;;;;5115928;28;20024;-92
2023/04/05 09:12:25;;;;;;;16.23;10.80;;;8.40;99.90;;;;;;5114356;28;20069;-90
2023/04/05 09:14:52;;;;;;;22.63;10.60;;;8.40;99.90;;;;;;5112776;28;20027;-90
2023/04/05 09:17:18;;;;;;;24.33;13.80;;;8.40;99.90;;;;;;5112604;28;20058;-89
2023/04/05 09:19:44;;;;;;;18.98;10.70;;;8.40;99.90;;;;;;5115253;28;20024;-90
2023/04/05 09:22:10;;;;;;;17.95;10.20;;;8.40;99.90;;;;;;5113217;28;20020;-90
2023/04/05 09:24:40;;;;;;;20.00;10.43;;;8.50;99.90;;;;;;5114645;28;20567;-91
2023/04/05 09:27:14;;;;;;;20.90;10.18;;;8.50;99.90;;;;;;5113640;28;20024;-89
2023/04/05 09:29:41;;;;;;;20.98;9.57;;;8.50;99.90;;;;;;5113142;28;20080;-90
2023/04/05 09:32:09;;;;;;;18.85;11.02;;;8.50;99.90;;;;;;5118169;27;20504;-89
2023/04/05 09:34:36;;;;;;;18.35;9.77;;;8.60;99.90;;;;;;5122741;27;20035;-91
2023/04/05 09:37:13;;;;;;;21.48;11.18;;;8.60;99.90;;;;;;5112666;28;20016;-89
2023/04/05 09:39:39;;;;;;;17.42;8.95;;;8.70;99.90;;;;;;5127606;27;20023;-90
2023/04/05 09:42:09;;;;;;;16.50;9.93;;;8.70;99.90;;;;;;5112161;28;20380;-89
2023/04/05 09:44:51;;;;;;;14.15;8.85;;;8.70;99.90;;;;;;5112425;28;20071;-91
2023/04/05 09:47:18;;;;;;;23.17;10.75;;;8.70;99.90;;;;;;5119887;27;20036;-90
2023/04/05 09:49:44;;;;;;;20.60;10.00;;;8.70;99.90;;;;;;5112188;28;20020;-91
2023/04/05 09:52:27;;;;;;;21.88;11.15;;;8.70;99.90;;;;;;5113925;28;20068;-90
2023/04/05 09:54:56;;;;;;;18.80;11.52;;;8.70;99.90;;;;;;5115969;28;20023;-91
2023/04/05 09:57:22;;;;;;;22.33;11.52;;;8.80;99.90;;;;;;5114142;28;20047;-87
2023/04/05 09:59:48;;;;;;;13.02;8.95;;;8.80;99.90;;;;;;5112994;28;20015;-89
2023/04/05 10:02:15;;;;;;;16.23;9.25;;;8.80;99.90;;;;;;5112209;28;20023;-90
2023/04/05 10:04:43;;;;;;;20.08;10.70;;;8.80;99.90;;;;;;5113010;28;20047;-89
2023/04/05 10:07:12;;;;;;;21.65;10.40;;;8.80;99.90;;;;;;5114436;28;20040;-88
2023/04/05 10:09:41;;;;;;;19.95;10.80;;;8.80;99.90;;;;;;5113087;28;20031;-88
2023/04/05 10:12:08;;;;;;;19.67;10.73;;;8.80;99.90;;;;;;5112886;28;20591;-90
2023/04/05 10:14:36;;;;;;;17.02;9.02;;;8.90;99.90;;;;;;5112933;28;20024;-90
2023/04/05 10:17:48;;;;;;;13.60;8.15;;;8.90;99.90;;;;;;5113690;28;20040;-88
2023/04/05 10:20:16;;;;;;;14.93;9.27;;;8.90;99.90;;;;;;5104127;28;20039;-88
2023/04/05 10:23:02;;;;;;;19.10;9.35;;;9.00;99.90;;;;;;5115044;28;20075;-88
2023/04/05 10:25:46;;;;;;;16.60;8.93;;;9.00;99.90;;;;;;5109061;28;20051;-90
2023/04/05 10:28:36;;;;;;;13.90;9.55;;;9.00;99.90;;;;;;5116596;28;20016;-91
2023/04/05 10:31:23;;;;;;;33.42;10.05;;;9.00;99.90;;;;;;5116629;28;20031;-90
2023/04/05 10:34:04;;;;;;;17.95;9.18;;;9.10;99.90;;;;;;5116727;28;20027;-90
2023/04/05 10:36:45;;;;;;;16.08;9.60;;;9.00;99.90;;;;;;5117132;28;20024;-90
2023/04/05 10:39:16;;;;;;;19.13;9.00;;;9.00;99.90;;;;;;5117050;28;20027;-88
2023/04/05 10:41:53;;;;;;;14.90;8.90;;;9.10;99.90;;;;;;5116584;28;20034;-90
2023/04/05 10:44:18;;;;;;;16.27;8.85;;;9.10;99.90;;;;;;5116275;28;20035;-90
2023/04/05 10:46:45;;;;;;;14.30;8.60;;;9.10;99.90;;;;;;5116270;28;20494;-90
2023/04/05 10:49:15;;;;;;;14.52;7.53;;;9.10;99.90;;;;;;5115516;28;20583;-91
2023/04/05 10:51:42;;;;;;;17.00;8.95;;;9.10;99.90;;;;;;5116179;28;20473;-91
2023/04/05 10:54:10;;;;;;;18.55;9.27;;;9.10;99.90;;;;;;5116107;28;20050;-91
2023/04/05 10:56:37;;;;;;;11.35;7.32;;;9.10;99.90;;;;;;5116613;28;20016;-91
2023/04/05 10:59:04;;;;;;;13.05;8.05;;;9.10;99.90;;;;;;5116973;28;20027;-92
2023/04/05 11:01:30;;;;;;;18.52;9.40;;;9.20;99.90;;;;;;5116779;28;20023;-91
2023/04/05 11:04:13;;;;;;;20.10;9.50;;;9.20;99.90;;;;;;5115495;28;20048;-91
2023/04/05 11:06:40;;;;;;;14.48;8.75;;;9.30;99.90;;;;;;5116229;28;20123;-91
2023/04/05 11:09:14;;;;;;;17.00;9.30;;;9.30;99.90;;;;;;5116042;28;20050;-91
2023/04/05 11:11:58;;;;;;;13.20;8.55;;;9.40;99.90;;;;;;5115715;28;20028;-91
2023/04/05 11:14:37;;;;;;;13.73;8.95;;;9.40;99.90;;;;;;5115754;28;20215;-92
2023/04/05 11:17:22;;;;;;;16.98;9.55;;;9.40;99.90;;;;;;5115340;28;20028;-91
2023/04/05 11:19:51;;;;;;;13.60;7.78;;;9.50;99.90;;;;;;5116878;28;20027;-90
2023/04/05 11:22:29;;;;;;;13.13;9.25;;;9.50;99.90;;;;;;5115066;28;20028;-91
2023/04/05 11:24:57;;;;;;;15.25;9.82;;;9.50;99.90;;;;;;5114967;28;20485;-89
2023/04/05 11:27:30;;;;;;;18.13;9.40;;;9.50;99.90;;;;;;5115459;28;20027;-91
2023/04/05 11:29:58;;;;;;;17.05;9.43;;;9.50;99.90;;;;;;5116404;28;20024;-91
2023/04/05 11:32:44;;;;;;;17.98;9.57;;;9.40;99.90;;;;;;5122447;28;20024;-90
2023/04/05 11:35:16;;;;;;;15.00;8.88;;;9.50;99.90;;;;;;5116266;27;20035;-91
2023/04/05 11:38:00;;;;;;;14.60;8.20;;;9.50;99.90;;;;;;5118386;28;20034;-90
2023/04/05 11:40:31;;;;;;;13.05;8.43;;;9.50;99.90;;;;;;5118637;28;20149;-90
2023/04/05 11:43:09;;;;;;;16.58;9.93;;;9.40;99.90;;;;;;5117128;28;20031;-88
2023/04/05 11:45:43;;;;;;;14.25;9.05;;;9.50;99.90;;;;;;5117683;28;20511;-88
2023/04/05 11:48:10;;;;;;;13.82;9.00;;;9.40;99.90;;;;;;5123847;28;20100;-94
2023/04/05 11:50:37;;;;;;;16.15;9.18;;;9.40;99.90;;;;;;5123245;28;20104;-90
2023/04/05 11:53:16;;;;;;;17.45;9.25;;;9.40;99.90;;;;;;5116836;28;20026;-89
2023/04/05 11:55:45;;;;;;;13.73;9.23;;;9.40;99.90;;;;;;5117291;28;20396;-90
2023/04/05 11:58:22;;;;;;;13.52;8.68;;;9.50;99.90;;;;;;5116101;28;20492;-87
2023/04/05 12:01:02;;;;;;;15.25;9.23;;;9.50;99.90;;;;;;5122279;28;20024;-90
2023/04/05 12:03:28;;;;;;;13.83;8.30;;;9.50;99.90;;;;;;5117177;28;20488;-90
2023/04/05 12:05:57;;;;;;;16.60;9.25;;;9.50;99.90;;;;;;5114894;28;20477;-90
2023/04/05 12:08:36;;;;;;;15.60;9.30;;;9.50;99.90;;;;;;5114124;28;20024;-90
2023/04/05 12:11:01;;;;;;;19.85;9.45;;;9.50;99.90;;;;;;5113442;28;20072;-91
2023/04/05 12:13:31;;;;;;;18.15;9.63;;;9.60;99.90;;;;;;5113600;28;20434;-90
2023/04/05 12:16:02;;;;;;;17.73;9.90;;;9.60;99.90;;;;;;5113687;28;20058;-90
2023/04/05 12:18:31;;;;;;;19.92;10.52;;;9.60;99.90;;;;;;5113598;28;20020;-91
2023/04/05 12:20:57;;;;;;;17.55;10.15;;;9.60;99.90;;;;;;5114315;28;20099;-90
2023/04/05 12:23:24;;;;;;;16.95;9.93;;;9.50;99.90;;;;;;5115103;28;20020;-90
2023/04/05 12:25:52;;;;;;;16.75;10.00;;;9.50;99.90;;;;;;5115388;28;20058;-89
2023/04/05 12:28:17;;;;;;;16.52;10.02;;;9.50;99.90;;;;;;5117497;28;20054;-90
2023/04/05 12:30:56;;;;;;;18.05;10.20;;;9.60;99.90;;;;;;5115133;28;20023;-90
2023/04/05 12:33:31;;;;;;;14.20;8.13;;;9.60;99.90;;;;;;5111177;28;20028;-91
2023/04/05 12:35:58;;;;;;;23.00;13.10;;;9.50;99.90;;;;;;5104832;28;20724;-89
2023/04/05 12:38:28;;;;;;;16.10;9.70;;;9.50;99.90;;;;;;5104335;28;20031;-91
2023/04/05 12:40:58;;;;;;;21.10;12.32;;;9.50;99.90;;;;;;5105484;28;20401;-89
2023/04/05 12:43:23;;;;;;;18.17;10.27;;;9.50;99.90;;;;;;5103562;28;20027;-89
2023/04/05 12:45:54;;;;;;;17.33;9.80;;;9.50;99.90;;;;;;5104035;28;20050;-90
2023/04/05 12:48:22;;;;;;;;;;;9.50;99.90;;;;;;5102864;28;20430;-89
2023/04/05 12:50:53;;;;;;;11.60;7.53;;;9.50;99.90;;;;;;5101448;28;19934;-90
2023/04/05 12:53:20;;;;;;;17.85;9.45;;;9.50;99.90;;;;;;5109077;28;20027;-90